x

Nantucket Sound (44020) Wave Buoy

10:50pm - Sun 7th Feb 2016 All times are EST. -5 hours from GMT.

  • Sig Wave height 3.6ft
  • Swell Direction
  • Peak Period 4s
  • Average Period 4s
  • Wind
    25mph, 29mph gusts
  • Sea Temp 40°f
  • Air Temp 42°f
  • Sea Pressure 1014mb
  • Nantucket Sound
  • Nantucket Sound

More Historic Weather Station data

Upgrade to MSW Pro to gain access to the past 30 days of data for over 8000 Wavebouys and Weather Stations around the globe.

Join Pro

Comparision Forecast

View Surf forecast
   
Sun 02/07 10:50pm 3.5ft 4s 4s 25 29 mph 1014mb 40f 42f
9:50pm 2.5ft 4s 4s 22 29 mph 1015.6mb 40f 42f
8:50pm 2ft 4s 4s 20 25 mph 1016.8mb 40f 42f
7:50pm 1.3ft 4s 3s 18 22 mph 1017.7mb 40f 42f
6:50pm 1ft 3s 3s 16 18 mph 1018.7mb 40f 42f
5:50pm 0.7ft  -  3s 16 18 mph 1018.4mb 41f 41f
4:50pm 0.7ft  -  5s 9 11 mph 1019mb 42f 41f
3:50pm 0.3ft  -  6s 9 11 mph 1019.1mb 43f 40f
2:50pm 0.3ft  -  5s 4
mph
1020.1mb 43f 41f
1:50pm 0.3ft  -  5s 2 4 mph 1021mb 42f 41f
12:50pm 0.3ft  -  4s 4 7 mph 1021.8mb 41f 40f
11:50am 0.7ft  -  4s 4
mph
1020.8mb 40f 40f
10:50am 0.7ft  -  5s 4 7 mph 1020.5mb 40f 40f
9:50am 0.7ft  -  5s 7 9 mph 1022mb 39f 40f
8:50am 0.7ft  -  4s 7 9 mph 1022.1mb 39f 40f
7:50am 0.7ft  -  3s 11 13 mph 1022.3mb 39f 40f
6:50am 0.7ft  -  3s 11 13 mph 1022.7mb 40f 39f
5:50am 0.7ft  -  3s 11 13 mph 1022.4mb 40f 39f
4:50am 1ft 2s 3s 13 16 mph 1022.5mb 40f 39f
3:50am 1ft 3s 3s 13 16 mph 1022.8mb 41f 39f
2:50am 0.7ft  -  3s 13 16 mph 1022.9mb 41f 39f
1:50am 0.7ft  -  3s 11 13 mph 1023.1mb 41f 39f
12:50am 0.7ft  -  3s 9 11 mph 1023.9mb 40f 39f
Sat 02/06 11:50pm 1ft 4s 3s 9 11 mph 1024.6mb 40f 39f
10:50pm 1.3ft 3s 3s 11 13 mph 1024.8mb 39f 40f
9:50pm 1.3ft 3s 3s 13 16 mph 1025mb 39f 40f
8:50pm 1.3ft 3s 3s 13 16 mph 1025.4mb 40f 39f
7:50pm 1.3ft 3s 3s 16 20 mph 1025.6mb 40f 39f
6:50pm 1.3ft 3s 3s 16 18 mph 1026.1mb 40f 38f
5:50pm 1.6ft 3s 3s 18 20 mph 1026.1mb 40f 37f
4:50pm 1.6ft 3s 3s 18 22 mph 1026.1mb 41f 37f
3:50pm 1.6ft 3s 3s 18 22 mph 1026.4mb 42f 36f
2:50pm 1.3ft 3s 3s 16 18 mph 1026.8mb 42f 36f
1:50pm 1.3ft 9s 4s 16 20 mph 1027mb 42f 36f
12:50pm 1.3ft 9s 4s 11 16 mph 1027.6mb 42f 34f
11:50am 1.6ft 9s 5s 9 11 mph 1028.7mb 40f 33f
10:50am 1.6ft 10s 4s 7 9 mph 1029.3mb 40f 33f
9:50am 1.6ft 9s 4s 7 11 mph 1029.5mb 39f 32f
8:50am 1.6ft 9s 4s 9 11 mph 1028.9mb 39f 31f
7:50am 1.3ft 9s 4s 13 16 mph 1028.8mb 39f 31f
6:50am 1.6ft 3s 3s 13 18 mph 1027.8mb 39f 30f
5:50am 2ft 3s 3s 16 18 mph 1027.1mb 39f 31f
4:50am 2ft 3s 3s 20 22 mph 1026.3mb 40f 30f
3:50am 2.5ft 4s 3s 20 22 mph 1025.8mb 40f 30f
2:50am 2.5ft 4s 4s 18 22 mph 1025.3mb 41f 30f
1:50am 2.5ft 4s 4s 20 25 mph 1024.2mb 41f 31f
12:50am 2.5ft 4s 4s 22 27 mph 1023.7mb 40f 30f
Fri 02/05 11:50pm 3ft 4s 4s 22 27 mph 1023.2mb 40f 31f
10:50pm 3.5ft 4s 4s 25 29 mph 1022.3mb 40f 31f
9:50pm 3.5ft 4s 4s 25 31 mph 1021mb 40f 32f
8:50pm 3.5ft 4s 4s 29 36 mph 1019.8mb 40f 33f
7:50pm 4.5ft 4s 4s 25 31 mph 1018.8mb 40f 34f
6:50pm 5ft 4s 4s 31 38 mph 1017.7mb 40f 33f
5:50pm 4ft 4s 4s 34 40 mph 1015.3mb 40f 33f
4:50pm 5ft 4s 4s 29 36 mph 1012.6mb 40f 34f
3:50pm 5ft 5s 4s 29 38 mph 1009.5mb 41f 35f
2:50pm 4.5ft 5s 4s 31 36 mph 1009.7mb 41f 34f
1:50pm 5ft 5s 4s 29 34 mph 1010.2mb 41f 35f
12:50pm 6ft 5s 5s 31 38 mph 1009mb 41f 35f
11:50am 5.5ft 5s 4s 36 43 mph 1008.7mb 41f 37f
10:50am 5.5ft 5s 4s 34 43 mph 1009.1mb 41f 37f
9:50am 4.5ft 4s 4s 34 40 mph 1010.8mb 40f 39f
8:50am 3.5ft 4s 4s 25 34 mph 1012.1mb 39f 41f
7:50am 2.5ft 3s 3s 18 22 mph 1012.7mb 39f 42f
6:50am 1.6ft 3s 3s 20 27 mph 1011.6mb 39f 42f
5:50am 1.6ft 3s 3s 13 16 mph 1012.7mb 40f 41f
4:50am 1.6ft 3s 3s 13
mph
1013.4mb 40f 41f
3:50am 1.6ft 3s 3s 13 16 mph 1014.1mb 40f 41f
2:50am 1.6ft 3s 3s 16 18 mph 1014.7mb 41f 41f
1:50am 1.6ft 3s 3s 16 18 mph 1015.2mb 41f 41f
12:50am 1.3ft 10s 3s 16 18 mph 1015.8mb 41f 41f
Thu 02/04 11:50pm 1ft 10s 4s 11 13 mph 1016.4mb 41f 42f
10:50pm 1.3ft 7s 4s 13 18 mph 1016.3mb 41f 42f
9:50pm 1.3ft 4s 4s 13 16 mph 1017mb 40f 42f
8:50pm 1.3ft 5s 4s 7
mph
1017.7mb 40f 43f
7:50pm 1.3ft 9s 4s 2 4 mph 1017.5mb 40f 46f
6:50pm 1.3ft 3s 4s 4
mph
1017.4mb 40f 45f
5:50pm 1ft 4s 4s  -  2 mph 1016.5mb 40f 45f
4:50pm 1ft 5s 4s  -  4 mph 1016.1mb 40f 45f
3:50pm 1ft 4s 4s 2 4 mph 1015.8mb 40f 45f
2:50pm 1ft 8s 4s 4 7 mph 1014.5mb 41f 46f
1:50pm 1ft 8s 4s 2 4 mph 1014.1mb 41f 46f
12:50pm 1.3ft 8s 4s 9 11 mph 1013.8mb 41f 45f
11:50am 1.3ft 3s 4s 4 7 mph 1014mb 41f 44f
10:50am 1.6ft 3s 3s 11 13 mph 1014.1mb 41f 45f
9:50am 2.5ft 3s 3s 16 20 mph 1013.2mb 40f 47f
8:50am 2ft 3s 4s 18 22 mph 1012.3mb 40f 48f
7:50am 1.6ft 6s 4s 11 16 mph 1013.2mb 39f 47f
6:50am 1.6ft 6s 4s 13 16 mph 1013.1mb 39f 46f
5:50am 1.6ft 3s 3s 13 16 mph 1013mb 40f 47f
4:50am 2.5ft 3s 4s 18 20 mph 1013mb 40f 47f